sensor_id;sensor_type;location;lat;lon;timestamp;temperature;humidity
44170;DHT22;29836;52.286;9.576;2023-03-14T00:00:32;10.30;99.90
44170;DHT22;29836;52.286;9.576;2023-03-14T00:02:58;10.40;99.90
44170;DHT22;29836;52.286;9.576;2023-03-14T00:05:23;10.40;99.90
44170;DHT22;29836;52.286;9.576;2023-03-14T00:07:49;10.60;99.90
44170;DHT22;29836;52.286;9.576;2023-03-14T00:10:15;10.60;99.90
44170;DHT22;29836;52.286;9.576;2023-03-14T00:12:41;10.70;99.90
44170;DHT22;29836;52.286;9.576;2023-03-14T00:15:07;10.60;99.90
44170;DHT22;29836;52.286;9.576;2023-03-14T00:17:34;10.60;99.90
44170;DHT22;29836;52.286;9.576;2023-03-14T00:20:00;10.50;99.90
44170;DHT22;29836;52.286;9.576;2023-03-14T00:22:34;10.50;99.90
44170;DHT22;29836;52.286;9.576;2023-03-14T00:25:00;10.40;99.90
44170;DHT22;29836;52.286;9.576;2023-03-14T00:27:26;10.50;99.90
44170;DHT22;29836;52.286;9.576;2023-03-14T00:29:51;10.40;99.90
44170;DHT22;29836;52.286;9.576;2023-03-14T00:32:17;10.40;99.90
44170;DHT22;29836;52.286;9.576;2023-03-14T00:34:42;10.40;99.90
44170;DHT22;29836;52.286;9.576;2023-03-14T00:37:08;10.40;99.90
44170;DHT22;29836;52.286;9.576;2023-03-14T00:39:33;10.40;99.90
44170;DHT22;29836;52.286;9.576;2023-03-14T00:41:59;10.50;99.90
44170;DHT22;29836;52.286;9.576;2023-03-14T00:44:24;10.60;99.90
44170;DHT22;29836;52.286;9.576;2023-03-14T00:46:50;10.60;99.90
44170;DHT22;29836;52.286;9.576;2023-03-14T00:49:16;10.60;99.90
44170;DHT22;29836;52.286;9.576;2023-03-14T00:51:41;10.70;99.90
44170;DHT22;29836;52.286;9.576;2023-03-14T00:54:07;10.60;99.90
44170;DHT22;29836;52.286;9.576;2023-03-14T00:56:33;10.60;99.90
44170;DHT22;29836;52.286;9.576;2023-03-14T00:58:58;10.60;99.90
44170;DHT22;29836;52.286;9.576;2023-03-14T01:01:24;10.50;99.90
44170;DHT22;29836;52.286;9.576;2023-03-14T01:03:54;10.50;99.90
44170;DHT22;29836;52.286;9.576;2023-03-14T01:06:23;10.50;99.90
44170;DHT22;29836;52.286;9.576;2023-03-14T01:08:50;10.50;99.90
44170;DHT22;29836;52.286;9.576;2023-03-14T01:11:23;10.50;99.90
44170;DHT22;29836;52.286;9.576;2023-03-14T01:13:49;10.50;99.90
44170;DHT22;29836;52.286;9.576;2023-03-14T01:16:15;10.60;99.90
44170;DHT22;29836;52.286;9.576;2023-03-14T01:18:42;10.60;99.90
44170;DHT22;29836;52.286;9.576;2023-03-14T01:21:26;10.60;99.90
44170;DHT22;29836;52.286;9.576;2023-03-14T01:23:54;10.70;99.90
44170;DHT22;29836;52.286;9.576;2023-03-14T01:26:22;10.60;99.90
44170;DHT22;29836;52.286;9.576;2023-03-14T01:28:50;10.60;99.90
44170;DHT22;29836;52.286;9.576;2023-03-14T01:31:16;10.60;99.90
44170;DHT22;29836;52.286;9.576;2023-03-14T01:33:42;10.50;99.90
44170;DHT22;29836;52.286;9.576;2023-03-14T01:36:09;10.50;99.90
44170;DHT22;29836;52.286;9.576;2023-03-14T01:38:37;10.50;99.90
44170;DHT22;29836;52.286;9.576;2023-03-14T01:41:04;10.50;99.90
44170;DHT22;29836;52.286;9.576;2023-03-14T01:43:30;10.50;99.90
44170;DHT22;29836;52.286;9.576;2023-03-14T01:53:55;10.70;99.90
44170;DHT22;29836;52.286;9.576;2023-03-14T01:56:23;10.80;99.90
44170;DHT22;29836;52.286;9.576;2023-03-14T01:58:50;10.80;99.90
44170;DHT22;29836;52.286;9.576;2023-03-14T02:01:18;10.90;99.90
44170;DHT22;29836;52.286;9.576;2023-03-14T02:03:54;10.90;99.90
44170;DHT22;29836;52.286;9.576;2023-03-14T02:06:21;11.00;99.90
44170;DHT22;29836;52.286;9.576;2023-03-14T02:08:47;11.00;99.90
44170;DHT22;29836;52.286;9.576;2023-03-14T02:11:15;10.90;99.90
44170;DHT22;29836;52.286;9.576;2023-03-14T02:13:41;10.90;99.90
44170;DHT22;29836;52.286;9.576;2023-03-14T02:16:07;11.00;99.90
44170;DHT22;29836;52.286;9.576;2023-03-14T02:18:33;11.00;99.90
44170;DHT22;29836;52.286;9.576;2023-03-14T02:21:12;10.80;99.90
44170;DHT22;29836;52.286;9.576;2023-03-14T02:26:23;10.60;99.90
44170;DHT22;29836;52.286;9.576;2023-03-14T02:28:49;10.50;99.90
44170;DHT22;29836;52.286;9.576;2023-03-14T02:31:16;10.50;99.90
44170;DHT22;29836;52.286;9.576;2023-03-14T02:33:41;10.40;99.90
44170;DHT22;29836;52.286;9.576;2023-03-14T02:36:11;10.40;99.90
44170;DHT22;29836;52.286;9.576;2023-03-14T02:38:55;10.40;99.90
44170;DHT22;29836;52.286;9.576;2023-03-14T02:41:23;10.40;99.90
44170;DHT22;29836;52.286;9.576;2023-03-14T02:43:49;10.30;99.90
44170;DHT22;29836;52.286;9.576;2023-03-14T02:46:18;10.30;99.90
44170;DHT22;29836;52.286;9.576;2023-03-14T02:48:54;10.20;99.90
44170;DHT22;29836;52.286;9.576;2023-03-14T02:51:22;10.30;99.90
44170;DHT22;29836;52.286;9.576;2023-03-14T02:53:49;10.20;99.90
44170;DHT22;29836;52.286;9.576;2023-03-14T02:56:14;10.20;99.90
44170;DHT22;29836;52.286;9.576;2023-03-14T02:58:40;10.20;99.90
44170;DHT22;29836;52.286;9.576;2023-03-14T03:01:06;10.10;99.90
44170;DHT22;29836;52.286;9.576;2023-03-14T03:03:31;10.10;99.90
44170;DHT22;29836;52.286;9.576;2023-03-14T03:05:57;10.10;99.90
44170;DHT22;29836;52.286;9.576;2023-03-14T03:08:25;10.20;99.90
44170;DHT22;29836;52.286;9.576;2023-03-14T03:10:52;10.20;99.90
44170;DHT22;29836;52.286;9.576;2023-03-14T03:13:18;10.20;99.90
44170;DHT22;29836;52.286;9.576;2023-03-14T03:15:44;10.20;99.90
44170;DHT22;29836;52.286;9.576;2023-03-14T03:18:10;10.20;99.90
44170;DHT22;29836;52.286;9.576;2023-03-14T03:20:36;10.30;99.90
44170;DHT22;29836;52.286;9.576;2023-03-14T03:23:03;10.40;99.90
44170;DHT22;29836;52.286;9.576;2023-03-14T03:25:30;10.50;99.90
44170;DHT22;29836;52.286;9.576;2023-03-14T03:27:56;10.40;99.90
44170;DHT22;29836;52.286;9.576;2023-03-14T03:30:22;10.40;99.90
44170;DHT22;29836;52.286;9.576;2023-03-14T03:32:48;10.40;99.90
44170;DHT22;29836;52.286;9.576;2023-03-14T03:35:14;10.40;99.90
44170;DHT22;29836;52.286;9.576;2023-03-14T03:37:40;10.20;99.90
44170;DHT22;29836;52.286;9.576;2023-03-14T03:40:06;10.00;99.90
44170;DHT22;29836;52.286;9.576;2023-03-14T03:42:33;9.80;99.90
44170;DHT22;29836;52.286;9.576;2023-03-14T03:45:00;9.60;99.90
44170;DHT22;29836;52.286;9.576;2023-03-14T03:47:26;9.30;99.90
44170;DHT22;29836;52.286;9.576;2023-03-14T03:49:51;9.10;99.90
44170;DHT22;29836;52.286;9.576;2023-03-14T03:52:17;8.90;99.90
44170;DHT22;29836;52.286;9.576;2023-03-14T03:54:42;8.70;99.90
44170;DHT22;29836;52.286;9.576;2023-03-14T03:57:08;8.60;99.90
44170;DHT22;29836;52.286;9.576;2023-03-14T03:59:33;8.40;99.90
44170;DHT22;29836;52.286;9.576;2023-03-14T04:01:59;8.30;99.90
44170;DHT22;29836;52.286;9.576;2023-03-14T04:04:24;8.20;99.90
44170;DHT22;29836;52.286;9.576;2023-03-14T04:06:50;8.10;99.90
44170;DHT22;29836;52.286;9.576;2023-03-14T04:09:16;8.00;99.90
44170;DHT22;29836;52.286;9.576;2023-03-14T04:11:41;7.90;99.90
44170;DHT22;29836;52.286;9.576;2023-03-14T04:14:07;7.90;99.90
44170;DHT22;29836;52.286;9.576;2023-03-14T04:16:33;7.80;99.90
44170;DHT22;29836;52.286;9.576;2023-03-14T04:18:58;7.80;99.90
44170;DHT22;29836;52.286;9.576;2023-03-14T04:21:24;7.80;99.90
44170;DHT22;29836;52.286;9.576;2023-03-14T04:23:49;7.70;99.90
44170;DHT22;29836;52.286;9.576;2023-03-14T04:26:15;7.70;99.90
44170;DHT22;29836;52.286;9.576;2023-03-14T04:28:41;7.70;99.90
44170;DHT22;29836;52.286;9.576;2023-03-14T04:31:13;7.70;99.90
44170;DHT22;29836;52.286;9.576;2023-03-14T04:33:38;7.60;99.90
44170;DHT22;29836;52.286;9.576;2023-03-14T04:36:05;7.70;99.90
44170;DHT22;29836;52.286;9.576;2023-03-14T04:38:31;7.60;99.90
44170;DHT22;29836;52.286;9.576;2023-03-14T04:40:58;7.60;99.90
44170;DHT22;29836;52.286;9.576;2023-03-14T04:43:24;7.60;99.90
44170;DHT22;29836;52.286;9.576;2023-03-14T04:45:51;7.50;99.90
44170;DHT22;29836;52.286;9.576;2023-03-14T04:48:17;7.50;99.90
44170;DHT22;29836;52.286;9.576;2023-03-14T04:50:42;7.50;99.90
44170;DHT22;29836;52.286;9.576;2023-03-14T04:53:08;7.60;99.90
44170;DHT22;29836;52.286;9.576;2023-03-14T04:55:33;7.60;99.90
44170;DHT22;29836;52.286;9.576;2023-03-14T04:58:00;7.60;99.90
44170;DHT22;29836;52.286;9.576;2023-03-14T05:00:25;7.50;99.90
44170;DHT22;29836;52.286;9.576;2023-03-14T05:02:51;7.60;99.90
44170;DHT22;29836;52.286;9.576;2023-03-14T05:05:16;7.60;99.90
44170;DHT22;29836;52.286;9.576;2023-03-14T05:07:42;7.60;99.90
44170;DHT22;29836;52.286;9.576;2023-03-14T05:10:08;7.60;99.90
44170;DHT22;29836;52.286;9.576;2023-03-14T05:12:34;7.50;99.90
44170;DHT22;29836;52.286;9.576;2023-03-14T05:15:00;7.50;99.90
44170;DHT22;29836;52.286;9.576;2023-03-14T05:17:26;7.60;99.90
44170;DHT22;29836;52.286;9.576;2023-03-14T05:19:51;7.50;99.90
44170;DHT22;29836;52.286;9.576;2023-03-14T05:22:17;7.50;99.90
44170;DHT22;29836;52.286;9.576;2023-03-14T05:24:42;7.50;99.90
44170;DHT22;29836;52.286;9.576;2023-03-14T05:27:08;7.50;99.90
44170;DHT22;29836;52.286;9.576;2023-03-14T05:29:33;7.60;99.90
44170;DHT22;29836;52.286;9.576;2023-03-14T05:31:59;7.50;99.90
44170;DHT22;29836;52.286;9.576;2023-03-14T05:34:24;7.60;99.90
44170;DHT22;29836;52.286;9.576;2023-03-14T05:36:50;7.50;99.90
44170;DHT22;29836;52.286;9.576;2023-03-14T05:39:15;7.50;99.90
44170;DHT22;29836;52.286;9.576;2023-03-14T05:41:41;7.50;99.90
44170;DHT22;29836;52.286;9.576;2023-03-14T05:44:06;7.60;99.90
44170;DHT22;29836;52.286;9.576;2023-03-14T05:46:36;7.60;99.90
44170;DHT22;29836;52.286;9.576;2023-03-14T05:49:02;7.60;99.90
44170;DHT22;29836;52.286;9.576;2023-03-14T05:51:27;7.70;99.90
44170;DHT22;29836;52.286;9.576;2023-03-14T05:53:53;7.80;99.90
44170;DHT22;29836;52.286;9.576;2023-03-14T05:56:18;7.70;99.90
44170;DHT22;29836;52.286;9.576;2023-03-14T05:58:44;7.70;99.90
44170;DHT22;29836;52.286;9.576;2023-03-14T06:01:09;7.70;99.90
44170;DHT22;29836;52.286;9.576;2023-03-14T06:03:35;7.70;99.90
44170;DHT22;29836;52.286;9.576;2023-03-14T06:06:01;7.70;99.90
44170;DHT22;29836;52.286;9.576;2023-03-14T06:08:26;7.80;99.90
44170;DHT22;29836;52.286;9.576;2023-03-14T06:10:52;8.00;99.90
44170;DHT22;29836;52.286;9.576;2023-03-14T06:13:18;8.00;99.90
44170;DHT22;29836;52.286;9.576;2023-03-14T06:15:43;8.20;99.90
44170;DHT22;29836;52.286;9.576;2023-03-14T06:18:09;8.30;99.90
44170;DHT22;29836;52.286;9.576;2023-03-14T06:20:38;8.50;99.90
44170;DHT22;29836;52.286;9.576;2023-03-14T06:23:08;8.70;99.90
44170;DHT22;29836;52.286;9.576;2023-03-14T06:25:34;8.90;99.90
44170;DHT22;29836;52.286;9.576;2023-03-14T06:28:00;9.20;99.90
44170;DHT22;29836;52.286;9.576;2023-03-14T06:30:26;9.60;99.90
44170;DHT22;29836;52.286;9.576;2023-03-14T06:32:52;9.60;99.90
44170;DHT22;29836;52.286;9.576;2023-03-14T06:35:17;9.40;99.90
44170;DHT22;29836;52.286;9.576;2023-03-14T06:37:43;9.60;99.90
44170;DHT22;29836;52.286;9.576;2023-03-14T06:40:10;9.70;99.90
44170;DHT22;29836;52.286;9.576;2023-03-14T06:42:36;9.90;99.90
44170;DHT22;29836;52.286;9.576;2023-03-14T06:45:02;9.70;99.90
44170;DHT22;29836;52.286;9.576;2023-03-14T06:47:28;9.50;99.90
44170;DHT22;29836;52.286;9.576;2023-03-14T06:49:53;9.40;99.90
44170;DHT22;29836;52.286;9.576;2023-03-14T06:52:19;9.20;99.90
44170;DHT22;29836;52.286;9.576;2023-03-14T06:54:44;9.20;99.90
44170;DHT22;29836;52.286;9.576;2023-03-14T06:57:10;9.20;99.90
44170;DHT22;29836;52.286;9.576;2023-03-14T06:59:35;9.60;99.90
44170;DHT22;29836;52.286;9.576;2023-03-14T07:02:01;9.60;99.90
44170;DHT22;29836;52.286;9.576;2023-03-14T07:04:27;9.50;99.90
44170;DHT22;29836;52.286;9.576;2023-03-14T07:06:52;9.30;99.90
44170;DHT22;29836;52.286;9.576;2023-03-14T07:09:18;9.10;99.90
44170;DHT22;29836;52.286;9.576;2023-03-14T07:11:43;9.00;99.90
44170;DHT22;29836;52.286;9.576;2023-03-14T07:14:09;8.90;99.90
44170;DHT22;29836;52.286;9.576;2023-03-14T07:16:35;9.00;99.90
44170;DHT22;29836;52.286;9.576;2023-03-14T07:19:01;9.10;99.90
44170;DHT22;29836;52.286;9.576;2023-03-14T07:21:27;9.20;99.90
44170;DHT22;29836;52.286;9.576;2023-03-14T07:23:52;9.30;99.90
44170;DHT22;29836;52.286;9.576;2023-03-14T07:26:18;9.40;99.90
44170;DHT22;29836;52.286;9.576;2023-03-14T07:28:44;9.40;99.90
44170;DHT22;29836;52.286;9.576;2023-03-14T07:31:09;9.30;99.90
44170;DHT22;29836;52.286;9.576;2023-03-14T07:33:35;9.30;99.90
44170;DHT22;29836;52.286;9.576;2023-03-14T07:36:01;9.10;99.90
44170;DHT22;29836;52.286;9.576;2023-03-14T07:38:27;9.00;99.90
44170;DHT22;29836;52.286;9.576;2023-03-14T07:41:00;8.90;99.90
44170;DHT22;29836;52.286;9.576;2023-03-14T07:43:25;8.90;99.90
44170;DHT22;29836;52.286;9.576;2023-03-14T07:45:51;8.90;99.90
44170;DHT22;29836;52.286;9.576;2023-03-14T07:48:17;8.80;99.90
44170;DHT22;29836;52.286;9.576;2023-03-14T07:50:42;8.80;99.90
44170;DHT22;29836;52.286;9.576;2023-03-14T07:53:08;8.80;99.90
44170;DHT22;29836;52.286;9.576;2023-03-14T07:55:33;8.80;99.90
44170;DHT22;29836;52.286;9.576;2023-03-14T07:57:59;8.90;99.90
44170;DHT22;29836;52.286;9.576;2023-03-14T08:00:24;9.00;99.90
44170;DHT22;29836;52.286;9.576;2023-03-14T08:02:50;9.00;99.90
44170;DHT22;29836;52.286;9.576;2023-03-14T08:05:16;9.00;99.90
44170;DHT22;29836;52.286;9.576;2023-03-14T08:07:41;9.20;99.90
44170;DHT22;29836;52.286;9.576;2023-03-14T08:10:08;9.30;99.90
44170;DHT22;29836;52.286;9.576;2023-03-14T08:12:33;9.30;99.90
44170;DHT22;29836;52.286;9.576;2023-03-14T08:14:59;9.40;99.90
44170;DHT22;29836;52.286;9.576;2023-03-14T08:17:25;9.40;99.90
44170;DHT22;29836;52.286;9.576;2023-03-14T08:19:50;9.40;99.90
44170;DHT22;29836;52.286;9.576;2023-03-14T08:22:16;9.50;99.90
44170;DHT22;29836;52.286;9.576;2023-03-14T08:24:41;9.90;99.90
44170;DHT22;29836;52.286;9.576;2023-03-14T08:27:07;10.10;99.90
44170;DHT22;29836;52.286;9.576;2023-03-14T08:29:33;10.10;99.90
44170;DHT22;29836;52.286;9.576;2023-03-14T08:31:58;10.70;99.90
44170;DHT22;29836;52.286;9.576;2023-03-14T08:34:24;11.10;99.90
44170;DHT22;29836;52.286;9.576;2023-03-14T08:36:49;11.40;99.90
44170;DHT22;29836;52.286;9.576;2023-03-14T08:39:15;11.50;99.90
44170;DHT22;29836;52.286;9.576;2023-03-14T08:41:41;11.30;99.90
44170;DHT22;29836;52.286;9.576;2023-03-14T08:44:08;11.10;99.90
44170;DHT22;29836;52.286;9.576;2023-03-14T08:46:34;11.30;99.90
44170;DHT22;29836;52.286;9.576;2023-03-14T08:49:00;11.20;99.90
44170;DHT22;29836;52.286;9.576;2023-03-14T08:51:25;11.30;99.90
44170;DHT22;29836;52.286;9.576;2023-03-14T08:53:51;11.20;99.90
44170;DHT22;29836;52.286;9.576;2023-03-14T08:56:17;11.00;99.90
44170;DHT22;29836;52.286;9.576;2023-03-14T08:58:42;10.90;99.90
44170;DHT22;29836;52.286;9.576;2023-03-14T09:01:09;11.00;99.90
44170;DHT22;29836;52.286;9.576;2023-03-14T09:03:35;10.90;99.90
44170;DHT22;29836;52.286;9.576;2023-03-14T09:06:09;11.00;99.90
44170;DHT22;29836;52.286;9.576;2023-03-14T09:08:35;11.10;99.90
44170;DHT22;29836;52.286;9.576;2023-03-14T09:11:00;11.10;99.90
44170;DHT22;29836;52.286;9.576;2023-03-14T09:13:26;11.00;99.90
44170;DHT22;29836;52.286;9.576;2023-03-14T09:15:52;10.90;99.90
44170;DHT22;29836;52.286;9.576;2023-03-14T09:18:18;10.80;99.90
44170;DHT22;29836;52.286;9.576;2023-03-14T09:20:44;10.70;99.90
44170;DHT22;29836;52.286;9.576;2023-03-14T09:23:09;10.90;99.90
44170;DHT22;29836;52.286;9.576;2023-03-14T09:25:35;11.10;99.90
44170;DHT22;29836;52.286;9.576;2023-03-14T09:28:01;11.20;99.90
44170;DHT22;29836;52.286;9.576;2023-03-14T09:30:26;11.40;99.90
44170;DHT22;29836;52.286;9.576;2023-03-14T09:32:52;11.30;99.90
44170;DHT22;29836;52.286;9.576;2023-03-14T09:35:17;11.30;99.90
44170;DHT22;29836;52.286;9.576;2023-03-14T09:37:43;12.10;99.90
44170;DHT22;29836;52.286;9.576;2023-03-14T09:40:14;13.50;99.90
44170;DHT22;29836;52.286;9.576;2023-03-14T09:42:40;14.20;99.90
44170;DHT22;29836;52.286;9.576;2023-03-14T09:45:16;15.20;99.90
44170;DHT22;29836;52.286;9.576;2023-03-14T09:47:44;15.60;99.90
44170;DHT22;29836;52.286;9.576;2023-03-14T09:50:14;15.30;99.90
44170;DHT22;29836;52.286;9.576;2023-03-14T09:52:42;15.30;99.90
44170;DHT22;29836;52.286;9.576;2023-03-14T09:55:14;15.40;99.90
44170;DHT22;29836;52.286;9.576;2023-03-14T09:57:41;15.50;99.90
44170;DHT22;29836;52.286;9.576;2023-03-14T10:00:17;16.60;99.90
44170;DHT22;29836;52.286;9.576;2023-03-14T10:02:51;16.80;99.90
44170;DHT22;29836;52.286;9.576;2023-03-14T10:05:20;17.40;99.90
44170;DHT22;29836;52.286;9.576;2023-03-14T10:07:46;18.20;99.70
44170;DHT22;29836;52.286;9.576;2023-03-14T10:10:20;17.40;99.90
44170;DHT22;29836;52.286;9.576;2023-03-14T10:12:54;16.40;99.90
44170;DHT22;29836;52.286;9.576;2023-03-14T10:15:30;14.80;99.90
44170;DHT22;29836;52.286;9.576;2023-03-14T10:18:02;14.10;99.90
44170;DHT22;29836;52.286;9.576;2023-03-14T10:20:34;13.40;99.90
44170;DHT22;29836;52.286;9.576;2023-03-14T10:25:29;12.90;99.90
44170;DHT22;29836;52.286;9.576;2023-03-14T10:27:55;12.80;99.90
44170;DHT22;29836;52.286;9.576;2023-03-14T10:30:32;12.60;99.90
44170;DHT22;29836;52.286;9.576;2023-03-14T10:33:08;12.50;99.90
44170;DHT22;29836;52.286;9.576;2023-03-14T10:35:35;12.50;99.90
44170;DHT22;29836;52.286;9.576;2023-03-14T10:38:02;12.70;99.90
44170;DHT22;29836;52.286;9.576;2023-03-14T10:40:31;12.90;99.90
44170;DHT22;29836;52.286;9.576;2023-03-14T10:42:59;13.40;99.90
44170;DHT22;29836;52.286;9.576;2023-03-14T10:48:22;15.00;99.90
44170;DHT22;29836;52.286;9.576;2023-03-14T10:50:55;14.90;99.90
44170;DHT22;29836;52.286;9.576;2023-03-14T10:53:22;15.10;99.90
44170;DHT22;29836;52.286;9.576;2023-03-14T10:55:47;14.80;99.90
44170;DHT22;29836;52.286;9.576;2023-03-14T10:58:22;15.10;99.90
44170;DHT22;29836;52.286;9.576;2023-03-14T11:01:02;16.80;99.90
44170;DHT22;29836;52.286;9.576;2023-03-14T11:03:32;17.30;99.90
44170;DHT22;29836;52.286;9.576;2023-03-14T11:06:10;17.10;99.90
44170;DHT22;29836;52.286;9.576;2023-03-14T11:11:20;16.40;99.90
44170;DHT22;29836;52.286;9.576;2023-03-14T11:14:17;16.20;99.90
44170;DHT22;29836;52.286;9.576;2023-03-14T11:17:05;15.60;99.90
44170;DHT22;29836;52.286;9.576;2023-03-14T11:22:21;13.90;99.90
44170;DHT22;29836;52.286;9.576;2023-03-14T11:30:32;8.20;99.90
44170;DHT22;29836;52.286;9.576;2023-03-14T11:35:55;7.10;99.90
44170;DHT22;29836;52.286;9.576;2023-03-14T11:41:30;6.80;99.90
44170;DHT22;29836;52.286;9.576;2023-03-14T11:43:59;6.40;99.90
44170;DHT22;29836;52.286;9.576;2023-03-14T11:46:34;6.10;99.90
44170;DHT22;29836;52.286;9.576;2023-03-14T11:49:26;6.00;99.90
44170;DHT22;29836;52.286;9.576;2023-03-14T11:52:03;5.90;99.90
44170;DHT22;29836;52.286;9.576;2023-03-14T11:54:49;5.70;99.90
44170;DHT22;29836;52.286;9.576;2023-03-14T11:57:19;5.50;99.90
44170;DHT22;29836;52.286;9.576;2023-03-14T12:00:04;5.30;99.90
44170;DHT22;29836;52.286;9.576;2023-03-14T12:02:45;5.10;99.90
44170;DHT22;29836;52.286;9.576;2023-03-14T12:10:51;4.40;99.90
44170;DHT22;29836;52.286;9.576;2023-03-14T12:13:18;4.30;99.90
44170;DHT22;29836;52.286;9.576;2023-03-14T12:15:54;4.10;99.90
44170;DHT22;29836;52.286;9.576;2023-03-14T12:18:27;4.00;99.90
44170;DHT22;29836;52.286;9.576;2023-03-14T12:20:59;3.90;99.90
44170;DHT22;29836;52.286;9.576;2023-03-14T12:23:26;3.70;99.90
44170;DHT22;29836;52.286;9.576;2023-03-14T12:28:38;3.60;99.90
44170;DHT22;29836;52.286;9.576;2023-03-14T12:39:39;3.30;99.90
44170;DHT22;29836;52.286;9.576;2023-03-14T12:47:47;3.20;99.90
44170;DHT22;29836;52.286;9.576;2023-03-14T12:50:20;3.20;99.90
44170;DHT22;29836;52.286;9.576;2023-03-14T12:53:19;3.20;99.90
44170;DHT22;29836;52.286;9.576;2023-03-14T12:56:17;3.20;99.90
44170;DHT22;29836;52.286;9.576;2023-03-14T13:04:34;3.70;99.90
44170;DHT22;29836;52.286;9.576;2023-03-14T13:07:02;3.80;99.90
44170;DHT22;29836;52.286;9.576;2023-03-14T13:12:13;4.00;99.90
44170;DHT22;29836;52.286;9.576;2023-03-14T13:14:50;4.20;99.90
44170;DHT22;29836;52.286;9.576;2023-03-14T13:17:24;4.20;99.90
44170;DHT22;29836;52.286;9.576;2023-03-14T13:19:54;4.30;99.90
44170;DHT22;29836;52.286;9.576;2023-03-14T13:22:24;4.40;99.90
44170;DHT22;29836;52.286;9.576;2023-03-14T13:25:09;4.50;99.90
44170;DHT22;29836;52.286;9.576;2023-03-14T13:27:35;4.70;99.90
44170;DHT22;29836;52.286;9.576;2023-03-14T13:30:22;4.70;99.90
44170;DHT22;29836;52.286;9.576;2023-03-14T13:32:49;4.80;99.90
44170;DHT22;29836;52.286;9.576;2023-03-14T13:35:40;4.90;99.90
44170;DHT22;29836;52.286;9.576;2023-03-14T13:38:19;4.80;99.90
44170;DHT22;29836;52.286;9.576;2023-03-14T13:40:46;4.60;99.90
44170;DHT22;29836;52.286;9.576;2023-03-14T13:45:50;4.80;99.90
44170;DHT22;29836;52.286;9.576;2023-03-14T13:48:16;5.00;99.90
44170;DHT22;29836;52.286;9.576;2023-03-14T13:51:06;5.20;99.90
44170;DHT22;29836;52.286;9.576;2023-03-14T13:53:54;5.30;99.90
44170;DHT22;29836;52.286;9.576;2023-03-14T13:56:26;5.30;99.90
44170;DHT22;29836;52.286;9.576;2023-03-14T13:58:52;5.40;99.90
44170;DHT22;29836;52.286;9.576;2023-03-14T14:01:33;5.40;99.90
44170;DHT22;29836;52.286;9.576;2023-03-14T14:04:09;5.30;99.90
44170;DHT22;29836;52.286;9.576;2023-03-14T14:06:44;5.30;99.90
44170;DHT22;29836;52.286;9.576;2023-03-14T14:09:14;5.20;99.90
44170;DHT22;29836;52.286;9.576;2023-03-14T14:11:47;5.10;99.90
44170;DHT22;29836;52.286;9.576;2023-03-14T14:14:40;5.20;99.90
44170;DHT22;29836;52.286;9.576;2023-03-14T14:17:11;5.20;99.90
44170;DHT22;29836;52.286;9.576;2023-03-14T14:19:39;5.10;99.90
44170;DHT22;29836;52.286;9.576;2023-03-14T14:22:05;5.10;99.90
44170;DHT22;29836;52.286;9.576;2023-03-14T14:24:32;5.00;99.90
44170;DHT22;29836;52.286;9.576;2023-03-14T14:27:14;4.90;99.90
44170;DHT22;29836;52.286;9.576;2023-03-14T14:29:40;4.80;99.90
44170;DHT22;29836;52.286;9.576;2023-03-14T14:34:56;4.70;99.90
44170;DHT22;29836;52.286;9.576;2023-03-14T14:37:33;4.70;99.90
44170;DHT22;29836;52.286;9.576;2023-03-14T14:40:06;4.60;99.90
44170;DHT22;29836;52.286;9.576;2023-03-14T14:42:33;4.70;99.90
44170;DHT22;29836;52.286;9.576;2023-03-14T14:44:59;4.70;99.90
44170;DHT22;29836;52.286;9.576;2023-03-14T14:47:28;4.70;99.90
44170;DHT22;29836;52.286;9.576;2023-03-14T14:49:57;4.60;99.90
44170;DHT22;29836;52.286;9.576;2023-03-14T14:52:34;4.60;99.90
44170;DHT22;29836;52.286;9.576;2023-03-14T14:55:02;4.50;99.90
44170;DHT22;29836;52.286;9.576;2023-03-14T14:57:31;4.50;99.90
44170;DHT22;29836;52.286;9.576;2023-03-14T15:00:08;4.40;99.90
44170;DHT22;29836;52.286;9.576;2023-03-14T15:02:46;4.50;99.90
44170;DHT22;29836;52.286;9.576;2023-03-14T15:05:21;4.50;99.90
44170;DHT22;29836;52.286;9.576;2023-03-14T15:07:47;4.50;99.90
44170;DHT22;29836;52.286;9.576;2023-03-14T15:10:21;4.60;99.90
44170;DHT22;29836;52.286;9.576;2023-03-14T15:12:47;4.70;99.90
44170;DHT22;29836;52.286;9.576;2023-03-14T15:15:13;4.80;99.90
44170;DHT22;29836;52.286;9.576;2023-03-14T15:17:39;4.80;99.90
44170;DHT22;29836;52.286;9.576;2023-03-14T15:20:09;4.80;99.90
44170;DHT22;29836;52.286;9.576;2023-03-14T15:22:36;4.70;99.90
44170;DHT22;29836;52.286;9.576;2023-03-14T15:25:01;4.70;99.90
44170;DHT22;29836;52.286;9.576;2023-03-14T15:27:28;4.70;99.90
44170;DHT22;29836;52.286;9.576;2023-03-14T15:29:56;4.80;99.90
44170;DHT22;29836;52.286;9.576;2023-03-14T15:32:21;5.10;99.90
44170;DHT22;29836;52.286;9.576;2023-03-14T15:34:47;5.20;99.90
44170;DHT22;29836;52.286;9.576;2023-03-14T15:37:14;5.30;99.90
44170;DHT22;29836;52.286;9.576;2023-03-14T15:39:42;5.30;99.90
44170;DHT22;29836;52.286;9.576;2023-03-14T15:42:08;5.30;99.90
44170;DHT22;29836;52.286;9.576;2023-03-14T15:44:34;5.30;99.90
44170;DHT22;29836;52.286;9.576;2023-03-14T15:46:59;5.20;99.90
44170;DHT22;29836;52.286;9.576;2023-03-14T15:49:25;5.10;99.90
44170;DHT22;29836;52.286;9.576;2023-03-14T15:51:50;5.10;99.90
44170;DHT22;29836;52.286;9.576;2023-03-14T15:54:16;5.10;99.90
44170;DHT22;29836;52.286;9.576;2023-03-14T15:56:41;4.90;99.90
44170;DHT22;29836;52.286;9.576;2023-03-14T15:59:07;4.90;99.90
44170;DHT22;29836;52.286;9.576;2023-03-14T16:01:32;4.80;99.90
44170;DHT22;29836;52.286;9.576;2023-03-14T16:03:58;4.80;99.90
44170;DHT22;29836;52.286;9.576;2023-03-14T16:06:24;4.80;99.90
44170;DHT22;29836;52.286;9.576;2023-03-14T16:08:50;4.90;99.90
44170;DHT22;29836;52.286;9.576;2023-03-14T16:11:16;4.90;99.90
44170;DHT22;29836;52.286;9.576;2023-03-14T16:13:43;4.90;99.90
44170;DHT22;29836;52.286;9.576;2023-03-14T16:16:09;4.90;99.90
44170;DHT22;29836;52.286;9.576;2023-03-14T16:18:37;4.90;99.90
44170;DHT22;29836;52.286;9.576;2023-03-14T16:21:09;5.00;99.90
44170;DHT22;29836;52.286;9.576;2023-03-14T16:23:36;4.90;99.90
44170;DHT22;29836;52.286;9.576;2023-03-14T16:26:05;5.00;99.90
44170;DHT22;29836;52.286;9.576;2023-03-14T16:28:32;5.10;99.90
44170;DHT22;29836;52.286;9.576;2023-03-14T16:31:05;5.20;99.90
44170;DHT22;29836;52.286;9.576;2023-03-14T16:33:32;5.20;99.90
44170;DHT22;29836;52.286;9.576;2023-03-14T16:36:00;5.20;99.90
44170;DHT22;29836;52.286;9.576;2023-03-14T16:38:26;5.20;99.90
44170;DHT22;29836;52.286;9.576;2023-03-14T16:40:59;5.20;99.90
44170;DHT22;29836;52.286;9.576;2023-03-14T16:43:26;5.10;99.90
44170;DHT22;29836;52.286;9.576;2023-03-14T16:45:51;5.10;99.90
44170;DHT22;29836;52.286;9.576;2023-03-14T16:48:17;5.00;99.90
44170;DHT22;29836;52.286;9.576;2023-03-14T16:50:42;5.00;99.90
44170;DHT22;29836;52.286;9.576;2023-03-14T16:53:08;5.00;99.90
44170;DHT22;29836;52.286;9.576;2023-03-14T16:55:33;4.90;99.90